createdAt,value
2018-02-24T00:04:11.257Z,49.53
2018-02-24T00:14:12.816Z,58.83
2018-02-24T00:24:14.444Z,50.13
2018-02-24T00:34:16.292Z,52.03
2018-02-24T00:44:18.669Z,55.43
2018-02-24T00:54:20.351Z,53.50
2018-02-24T01:04:21.859Z,45.30
2018-02-24T01:14:23.420Z,37.33
2018-02-24T01:24:25.668Z,48.17
2018-02-24T01:34:27.198Z,48.37
2018-02-24T01:44:28.843Z,41.23
2018-02-24T01:54:30.408Z,41.07
2018-02-24T02:04:31.940Z,46.53
2018-02-24T02:14:34.303Z,52.23
2018-02-24T02:24:36.112Z,54.20
2018-02-24T02:34:37.599Z,69.37
2018-02-24T02:44:39.145Z,55.90
2018-02-24T02:54:41.380Z,36.63
2018-02-24T03:04:43.121Z,52.17
2018-02-24T03:14:44.641Z,45.60
2018-02-24T03:24:46.197Z,50.20
2018-02-24T03:34:47.911Z,53.80
2018-02-24T03:44:49.352Z,49.47
2018-02-24T03:54:50.880Z,50.40
2018-02-24T04:04:52.429Z,54.43
2018-02-24T04:14:53.985Z,54.47
2018-02-24T04:24:55.580Z,52.90
2018-02-24T04:34:57.923Z,52.90
2018-02-24T04:44:59.405Z,43.50
2018-02-24T04:55:00.948Z,59.07
2018-02-24T05:05:02.464Z,57.60
2018-02-24T05:15:04.094Z,71.87
2018-02-24T05:25:05.741Z,66.20
2018-02-24T05:35:07.305Z,55.07
2018-02-24T05:45:08.838Z,59.50
2018-02-24T05:55:10.360Z,71.80
2018-02-24T06:05:11.916Z,64.73
2018-02-24T06:15:13.558Z,69.03
2018-02-24T06:25:15.100Z,52.47
2018-02-24T06:35:16.620Z,79.10
2018-02-24T06:45:18.150Z,61.10
2018-02-24T06:55:19.731Z,53.07
2018-02-24T07:05:21.491Z,63.90
2018-02-24T07:15:23.047Z,62.37
2018-02-24T07:25:24.595Z,55.17
2018-02-24T07:35:26.143Z,58.77
2018-02-24T07:45:27.722Z,47.63
2018-02-24T07:55:29.217Z,59.97
2018-02-24T08:05:30.832Z,44.03
2018-02-24T08:15:32.557Z,44.03
2018-02-24T08:25:34.237Z,34.43
2018-02-24T08:35:35.782Z,39.30
2018-02-24T08:45:38.033Z,48.57
2018-02-24T08:55:46.762Z,40.73
2018-02-24T09:05:49.290Z,39.87
2018-02-24T09:15:51.679Z,39.70
2018-02-24T09:25:53.216Z,37.83
2018-02-24T09:35:54.959Z,41.73
2018-02-24T09:45:56.838Z,40.60
2018-02-24T09:55:58.430Z,26.37
2018-02-24T10:06:00.034Z,29.90
2018-02-24T10:16:01.603Z,26.30
2018-02-24T10:26:03.191Z,22.63
2018-02-24T10:36:04.736Z,24.93
2018-02-24T10:46:06.308Z,21.13
2018-02-24T10:56:08.586Z,31.30
2018-02-24T11:06:10.353Z,30.20
2018-02-24T11:16:11.923Z,14.87
2018-02-24T11:26:14.317Z,21.93
2018-02-24T11:36:16.118Z,11.43
2018-02-24T11:46:17.880Z,19.83
2018-02-24T11:56:19.584Z,12.70
2018-02-24T12:06:21.093Z,18.10
2018-02-24T12:16:22.706Z,13.67
2018-02-24T12:26:24.339Z,19.40
2018-02-24T12:36:26.030Z,13.03
2018-02-24T12:46:27.573Z,21.40
2018-02-24T12:56:29.912Z,14.27
2018-02-24T13:06:31.662Z,34.67
2018-02-24T13:16:34.513Z,20.10
2018-02-24T13:26:38.097Z,18.90
2018-02-24T13:36:39.804Z,16.00
2018-02-24T13:46:41.540Z,19.63
2018-02-24T13:56:43.260Z,18.23
2018-02-24T14:06:44.857Z,14.10
2018-02-24T14:16:47.992Z,21.67
2018-02-24T14:26:49.636Z,20.80
2018-02-24T14:36:53.305Z,25.83
2018-02-24T14:46:55.770Z,17.30
2018-02-24T14:56:58.486Z,33.60
2018-02-24T15:07:00.262Z,26.50
2018-02-24T15:17:01.864Z,21.17
2018-02-24T15:27:03.480Z,20.33
2018-02-24T15:37:05.105Z,24.17
2018-02-24T15:47:07.466Z,19.13
2018-02-24T15:57:09.805Z,23.20
2018-02-24T16:07:13.766Z,23.90
2018-02-24T16:17:16.822Z,20.07
2018-02-24T16:27:19.439Z,24.30
2018-02-24T16:37:21.186Z,27.97
2018-02-24T16:47:22.827Z,25.03
2018-02-24T16:57:24.444Z,24.07
2018-02-24T17:07:26.131Z,26.77
2018-02-24T17:17:28.405Z,22.93
2018-02-24T17:27:30.573Z,19.67
2018-02-24T17:37:32.474Z,18.20
2018-02-24T17:47:35.332Z,16.73
2018-02-24T17:57:39.295Z,15.27
2018-02-24T18:07:41.668Z,17.23
2018-02-24T18:17:43.351Z,12.40
2018-02-24T18:27:44.908Z,14.70
2018-02-24T18:37:47.260Z,8.63
2018-02-24T18:47:48.733Z,10.43
2018-02-24T18:57:51.043Z,18.20
2018-02-24T19:07:52.641Z,11.00
2018-02-24T19:17:54.248Z,8.13
2018-02-24T19:27:55.751Z,7.93
2018-02-24T19:37:58.154Z,3.93
2018-02-24T19:48:00.010Z,9.97
2018-02-24T19:58:01.764Z,9.20
2018-02-24T20:08:03.543Z,7.47
2018-02-24T20:18:05.990Z,5.80
2018-02-24T20:28:08.993Z,11.03
2018-02-24T20:38:11.617Z,7.97
2018-02-24T20:48:14.213Z,7.40
2018-02-24T20:58:16.247Z,4.40
2018-02-24T21:08:21.273Z,5.60
2018-02-24T21:18:23.947Z,6.83
2018-02-24T21:28:26.349Z,5.77
2018-02-24T21:38:27.946Z,7.37
2018-02-24T21:48:30.225Z,5.37
2018-02-24T21:58:32.501Z,8.20
2018-02-24T22:08:35.393Z,8.27
2018-02-24T22:18:38.877Z,6.37
2018-02-24T22:28:40.426Z,6.47
2018-02-24T22:38:42.069Z,9.50
2018-02-24T22:48:49.882Z,10.20
2018-02-24T22:58:52.169Z,8.00
2018-02-24T23:08:53.858Z,7.10
2018-02-24T23:18:58.541Z,8.27
2018-02-24T23:29:00.950Z,9.10
2018-02-24T23:39:03.697Z,7.73
2018-02-24T23:49:06.049Z,15.13
2018-02-24T23:59:09.702Z,11.17
